Time;durP1;ratioP1;P1;durP2;ratioP2;P2;SDS_P1;SDS_P2;PMS_P1;PMS_P2;Temp;Humidity;BMP_temperature;BMP_pressure;BME280_temperature;BME280_humidity;BME280_pressure;Samples;Min_cycle;Max_cycle;Signal;HPM_P1;HPM_P2
2020/12/24 00:03:25;;;;;;;32.13;16.57;;;;;;;5.56;100.00;98416.09;4353392;81;28555;-78
2020/12/24 00:09:27;;;;;;;26.42;16.42;;;;;;;5.52;100.00;98409.56;4332565;81;28565;-78
2020/12/24 00:15:29;;;;;;;27.93;16.05;;;;;;;5.47;100.00;98410.73;4329323;81;28543;-79
2020/12/24 00:21:38;;;;;;;32.85;19.02;;;;;;;5.44;100.00;98394.64;4335020;81;28614;-80
2020/12/24 00:27:40;;;;;;;32.83;18.98;;;;;;;5.62;100.00;98400.28;4335295;81;28578;-79
2020/12/24 00:33:42;;;;;;;28.15;16.42;;;;;;;5.68;100.00;98396.23;4331463;81;28671;-78
2020/12/24 00:39:44;;;;;;;32.98;17.05;;;;;;;5.71;100.00;98394.47;4334008;81;28572;-77
2020/12/24 00:45:46;;;;;;;25.70;14.85;;;;;;;5.53;100.00;98386.39;4321892;81;28594;-77
2020/12/24 00:51:48;;;;;;;32.80;18.67;;;;;;;5.63;100.00;98370.74;4352992;81;28573;-79
2020/12/24 00:57:50;;;;;;;35.50;19.35;;;;;;;5.64;100.00;98366.21;4335935;81;28633;-78
2020/12/24 01:03:52;;;;;;;27.82;16.75;;;;;;;5.50;100.00;98360.14;4283878;81;28658;-78
2020/12/24 01:09:54;;;;;;;30.15;16.35;;;;;;;5.50;100.00;98352.14;4346189;81;28603;-78
2020/12/24 01:15:57;;;;;;;30.95;15.98;;;;;;;5.57;100.00;98347.59;4341433;81;28572;-78
2020/12/24 01:21:59;;;;;;;32.15;18.25;;;;;;;5.60;100.00;98345.81;4346883;81;28639;-80
2020/12/24 01:28:01;;;;;;;35.48;19.87;;;;;;;5.80;100.00;98344.36;4305924;81;28563;-80
2020/12/24 01:34:03;;;;;;;34.95;19.75;;;;;;;5.84;100.00;98338.87;4311043;81;28583;-80
2020/12/24 01:40:05;;;;;;;29.45;16.75;;;;;;;5.76;100.00;98327.67;4304761;81;28603;-79
2020/12/24 01:46:09;;;;;;;27.20;15.68;;;;;;;5.86;100.00;98322.13;4306414;81;28567;-79
2020/12/24 01:52:35;;;;;;;29.32;15.20;;;;;;;5.96;100.00;98306.14;4328126;81;28566;-79
2020/12/24 01:58:37;;;;;;;30.52;15.45;;;;;;;6.05;100.00;98304.06;4340849;81;28549;-81
2020/12/24 02:04:39;;;;;;;30.65;17.45;;;;;;;6.03;100.00;98294.10;4332064;81;28556;-79
2020/12/24 02:10:42;;;;;;;36.70;20.52;;;;;;;5.97;100.00;98283.76;4303270;81;28610;-79
2020/12/24 02:16:44;;;;;;;33.40;18.77;;;;;;;5.86;100.00;98289.31;4324524;82;28575;-82
2020/12/24 02:22:46;;;;;;;32.85;17.00;;;;;;;5.96;100.00;98285.63;4307229;80;28626;-81
2020/12/24 02:28:49;;;;;;;31.12;16.82;;;;;;;6.13;100.00;98278.41;4312489;80;28599;-82
2020/12/24 02:34:55;;;;;;;37.90;19.57;;;;;;;6.18;100.00;98280.41;4299641;82;28556;-84
2020/12/24 02:40:55;;;;;;;36.80;20.37;;;;;;;6.06;100.00;98273.14;4296155;82;28591;-79
2020/12/24 02:46:57;;;;;;;30.30;17.00;;;;;;;5.95;100.00;98276.50;4352762;82;28622;-79
2020/12/24 02:52:59;;;;;;;36.05;17.48;;;;;;;6.14;100.00;98280.86;4304872;82;28572;-79
2020/12/24 02:59:01;;;;;;;33.73;17.23;;;;;;;5.99;100.00;98273.70;4328668;80;28586;-78
2020/12/24 03:05:06;;;;;;;34.98;19.25;;;;;;;6.13;100.00;98288.58;4334925;82;28621;-78
2020/12/24 03:11:11;;;;;;;36.48;20.70;;;;;;;6.08;100.00;98296.41;4289384;82;28665;-78
2020/12/24 03:17:13;;;;;;;33.65;18.60;;;;;;;6.32;100.00;98253.06;4311730;82;28601;-79
2020/12/24 03:23:15;;;;;;;37.00;18.80;;;;;;;6.29;100.00;98256.98;4324130;82;28628;-79
2020/12/24 03:29:17;;;;;;;38.40;22.30;;;;;;;6.07;100.00;98262.75;4316661;81;28591;-79
2020/12/24 03:35:19;;;;;;;38.38;21.40;;;;;;;6.25;100.00;98269.16;4327374;81;28587;-79
2020/12/24 03:41:21;;;;;;;34.92;18.87;;;;;;;6.42;100.00;98262.70;4295223;81;28545;-79
2020/12/24 03:47:23;;;;;;;34.00;17.67;;;;;;;6.44;100.00;98265.95;4332006;82;28594;-81
2020/12/24 03:53:25;;;;;;;29.02;16.82;;;;;;;6.46;100.00;98261.23;4289660;82;28551;-80
2020/12/24 03:59:27;;;;;;;35.48;20.15;;;;;;;6.44;100.00;98245.13;4291358;80;28604;-81
2020/12/24 04:05:29;;;;;;;38.10;19.80;;;;;;;6.58;100.00;98253.27;4299766;81;28578;-81
2020/12/24 04:11:31;;;;;;;33.83;17.90;;;;;;;6.47;100.00;98252.18;4306597;81;28686;-81
2020/12/24 04:17:34;;;;;;;33.92;16.65;;;;;;;6.31;100.00;98267.45;4315042;81;28593;-80
2020/12/24 04:23:35;;;;;;;30.40;16.73;;;;;;;6.27;100.00;98271.08;4307490;81;28590;-79
2020/12/24 04:29:38;;;;;;;30.15;16.20;;;;;;;6.20;100.00;98259.67;4326151;81;28609;-80
2020/12/24 04:35:40;;;;;;;32.60;18.07;;;;;;;6.12;100.00;98250.08;4308232;81;28537;-79
2020/12/24 04:41:42;;;;;;;35.58;18.85;;;;;;;6.07;100.00;98251.28;4307984;81;28584;-80
2020/12/24 04:47:45;;;;;;;33.33;17.73;;;;;;;6.02;100.00;98251.94;4345578;81;28652;-80
2020/12/24 04:53:47;;;;;;;28.05;16.25;;;;;;;5.85;100.00;98248.47;4302781;81;28635;-80
2020/12/24 04:59:52;;;;;;;27.32;16.02;;;;;;;5.92;100.00;98252.40;4345766;81;28569;-81
2020/12/24 05:05:54;;;;;;;27.10;14.98;;;;;;;5.93;100.00;98234.02;4311460;81;28617;-82
2020/12/24 05:11:56;;;;;;;27.25;15.28;;;;;;;5.94;100.00;98224.17;4306174;82;28551;-81
2020/12/24 05:18:19;;;;;;;33.50;18.05;;;;;;;5.89;100.00;98231.50;4300010;81;28685;-81
2020/12/24 05:24:33;;;;;;;31.05;17.02;;;;;;;5.90;100.00;98225.66;4299927;80;28566;-81
2020/12/24 05:30:35;;;;;;;31.20;17.50;;;;;;;5.79;100.00;98224.52;4299687;81;28548;-82
2020/12/24 05:36:37;;;;;;;31.27;16.80;;;;;;;6.05;100.00;98224.80;4299593;82;28567;-81
2020/12/24 05:42:52;;;;;;;28.95;15.85;;;;;;;6.20;100.00;98212.97;4293832;80;28621;-80
2020/12/24 05:48:55;;;;;;;26.67;15.07;;;;;;;6.06;100.00;98211.75;4289568;82;28645;-81
2020/12/24 05:54:58;;;;;;;21.93;13.28;;;;;;;6.28;100.00;98225.98;4297687;81;28654;-80
2020/12/24 06:01:01;;;;;;;26.57;15.95;;;;;;;5.99;100.00;98235.81;4298238;82;28623;-81
2020/12/24 06:07:07;;;;;;;30.90;16.80;;;;;;;5.85;100.00;98227.66;4290532;81;28614;-81
2020/12/24 06:13:16;;;;;;;25.17;14.60;;;;;;;6.15;100.00;98224.30;4331531;81;28577;-82
2020/12/24 06:19:21;;;;;;;28.73;13.48;;;;;;;5.64;100.00;98228.36;4339729;81;28615;-81
2020/12/24 06:25:23;;;;;;;25.48;14.15;;;;;;;5.94;100.00;98230.84;4354596;81;28660;-80
2020/12/24 06:31:26;;;;;;;24.50;13.95;;;;;;;5.96;100.00;98221.59;4341311;81;28636;-80
2020/12/24 06:37:37;;;;;;;24.12;13.83;;;;;;;5.76;100.00;98215.64;4329941;81;28587;-82
2020/12/24 06:43:40;;;;;;;22.62;12.80;;;;;;;5.63;100.00;98216.06;4304263;81;28638;-82
2020/12/24 06:49:44;;;;;;;23.57;13.03;;;;;;;5.89;100.00;98213.36;4304225;81;28578;-84
2020/12/24 06:56:22;;;;;;;19.00;11.85;;;;;;;5.77;100.00;98215.93;4304048;81;28622;-83
2020/12/24 07:02:25;;;;;;;19.02;10.72;;;;;;;5.47;100.00;98222.77;4304060;81;28959;-83
2020/12/24 07:08:46;;;;;;;16.25;9.68;;;;;;;5.35;100.00;98239.97;4304219;81;28622;-83
2020/12/24 07:14:48;;;;;;;19.32;12.33;;;;;;;5.44;100.00;98225.84;4304315;81;28646;-82
2020/12/24 07:20:52;;;;;;;16.27;9.45;;;;;;;5.29;100.00;98236.83;4304811;81;28598;-81
2020/12/24 07:26:57;;;;;;;17.98;9.83;;;;;;;5.42;100.00;98215.92;4324403;81;28543;-87
2020/12/24 07:33:00;;;;;;;15.03;8.73;;;;;;;5.70;100.00;98221.33;4332167;81;28667;-86
2020/12/24 07:39:02;;;;;;;12.40;6.17;;;;;;;5.80;100.00;98202.97;4326094;81;28556;-82
2020/12/24 07:45:04;;;;;;;9.98;5.60;;;;;;;6.33;100.00;98202.63;4314885;81;28580;-90
2020/12/24 07:51:10;;;;;;;7.45;4.45;;;;;;;6.74;100.00;98202.95;4332466;81;28563;-88
2020/12/24 07:57:23;;;;;;;5.57;3.83;;;;;;;7.02;100.00;98205.01;4378930;81;28584;-89
2020/12/24 08:03:25;;;;;;;15.35;9.93;;;;;;;7.29;100.00;98211.80;4325460;81;28553;-89
2020/12/24 08:09:27;;;;;;;18.95;10.48;;;;;;;7.11;100.00;98210.83;4339184;81;28578;-87
2020/12/24 08:15:33;;;;;;;17.15;10.40;;;;;;;7.07;100.00;98201.66;4167059;84;28614;-87
2020/12/24 08:21:46;;;;;;;17.70;10.10;;;;;;;6.92;100.00;98204.74;4194115;84;28642;-87
2020/12/24 08:27:48;;;;;;;21.25;10.20;;;;;;;6.90;100.00;98214.31;4343130;80;28567;-87
2020/12/24 08:33:53;;;;;;;13.68;8.83;;;;;;;7.13;100.00;98219.43;4151480;84;28561;-90
2020/12/24 08:39:55;;;;;;;19.48;11.10;;;;;;;7.32;100.00;98212.67;4171365;84;28567;-85
2020/12/24 08:45:57;;;;;;;17.87;11.18;;;;;;;7.01;100.00;98202.55;4322942;81;28555;-85
2020/12/24 08:52:17;;;;;;;15.48;8.70;;;;;;;6.91;100.00;98211.13;4177334;84;28610;-84
2020/12/24 08:58:19;;;;;;;14.40;9.48;;;;;;;7.23;100.00;98204.98;4190106;84;28612;-84
2020/12/24 09:04:21;;;;;;;16.87;9.43;;;;;;;7.25;100.00;98204.77;4332919;80;28564;-83
2020/12/24 09:10:27;;;;;;;17.85;11.12;;;;;;;7.19;100.00;98199.81;4181421;84;28565;-89
2020/12/24 09:16:34;;;;;;;18.87;11.33;;;;;;;7.11;100.00;98194.79;4176834;83;28639;-90
2020/12/24 09:22:36;;;;;;;17.50;10.28;;;;;;;7.41;100.00;98201.14;4197224;84;28598;-88
2020/12/24 09:28:38;;;;;;;17.12;9.60;;;;;;;7.30;100.00;98200.89;4201513;84;28586;-88
2020/12/24 09:34:41;;;;;;;16.45;9.43;;;;;;;7.33;100.00;98211.63;4187955;84;28553;-83
2020/12/24 09:40:43;;;;;;;18.42;11.18;;;;;;;7.36;100.00;98214.66;4201107;83;28592;-84
2020/12/24 09:46:48;;;;;;;21.90;11.83;;;;;;;7.40;100.00;98219.03;4187470;84;28596;-83
2020/12/24 09:52:50;;;;;;;16.42;9.58;;;;;;;7.66;100.00;98215.09;4200093;84;28608;-82
2020/12/24 09:58:52;;;;;;;18.80;11.08;;;;;;;7.61;100.00;98222.19;4223757;84;28569;-89
2020/12/24 10:04:54;;;;;;;18.52;10.82;;;;;;;7.78;100.00;98212.94;4209662;84;28557;-86
2020/12/24 10:10:56;;;;;;;20.05;10.82;;;;;;;7.76;100.00;98219.88;4185079;84;28557;-85
2020/12/24 10:17:05;;;;;;;17.42;9.65;;;;;;;7.80;100.00;98207.66;4188061;84;28579;-86
2020/12/24 10:23:09;;;;;;;15.48;7.92;;;;;;;7.97;100.00;98197.59;4183568;84;28644;-86
2020/12/24 10:29:11;;;;;;;13.65;7.10;;;;;;;8.05;100.00;98189.17;4175681;83;28562;-85
2020/12/24 10:35:13;;;;;;;15.18;7.37;;;;;;;8.22;100.00;98188.45;4204306;84;28586;-86
2020/12/24 10:41:16;;;;;;;18.50;8.88;;;;;;;8.37;100.00;98180.71;4188031;84;28609;-92
2020/12/24 10:47:18;;;;;;;15.05;8.68;;;;;;;8.49;100.00;98183.36;4211084;84;28633;-86
2020/12/24 10:53:20;;;;;;;14.38;7.37;;;;;;;8.54;100.00;98180.52;4192596;83;28558;-92
2020/12/24 10:59:23;;;;;;;12.03;6.40;;;;;;;8.55;100.00;98176.27;4191695;84;28635;-85
2020/12/24 11:05:25;;;;;;;8.40;4.62;;;;;;;8.58;100.00;98169.63;4182610;84;28581;-89
2020/12/24 11:11:35;;;;;;;10.13;4.05;;;;;;;8.65;100.00;98166.28;4166693;84;28599;-90
2020/12/24 11:17:37;;;;;;;7.00;3.25;;;;;;;8.68;100.00;98158.27;4196642;84;28610;-88
2020/12/24 11:23:39;;;;;;;6.85;3.12;;;;;;;8.69;100.00;98150.52;4198229;84;28652;-88
2020/12/24 11:29:41;;;;;;;6.50;3.02;;;;;;;8.66;100.00;98138.43;4208914;83;28600;-88
2020/12/24 11:35:45;;;;;;;5.97;2.50;;;;;;;8.65;100.00;98129.56;4206279;84;28607;-91
2020/12/24 11:41:47;;;;;;;4.92;2.65;;;;;;;8.70;100.00;98128.05;4145272;84;28604;-83
2020/12/24 11:47:50;;;;;;;8.35;3.05;;;;;;;8.81;100.00;98120.47;4193839;84;28606;-84
2020/12/24 11:53:53;;;;;;;6.45;2.80;;;;;;;8.85;100.00;98111.38;4174057;83;28628;-82
2020/12/24 11:59:55;;;;;;;4.90;2.90;;;;;;;8.90;100.00;98103.44;4180118;84;28592;-88
2020/12/24 12:05:58;;;;;;;6.10;2.55;;;;;;;8.97;100.00;98092.55;4176939;84;28670;-85
2020/12/24 12:12:00;;;;;;;4.58;2.77;;;;;;;8.98;100.00;98092.84;4272047;82;28578;-89
2020/12/24 12:18:02;;;;;;;7.12;2.95;;;;;;;8.84;100.00;98093.68;4245548;82;28592;-87
2020/12/24 12:24:05;;;;;;;7.05;2.70;;;;;;;8.81;100.00;98089.64;4267947;82;28614;-86
2020/12/24 12:30:07;;;;;;;6.65;2.30;;;;;;;8.82;100.00;98087.24;4260719;82;28552;-89
2020/12/24 12:36:09;;;;;;;8.53;3.37;;;;;;;8.86;100.00;98070.16;4273276;82;28614;-86
2020/12/24 12:42:11;;;;;;;3.45;1.98;;;;;;;8.79;100.00;98078.33;4253653;82;28615;-86
2020/12/24 12:48:14;;;;;;;4.85;2.20;;;;;;;8.84;100.00;98067.70;4190813;82;28600;-86
2020/12/24 12:54:20;;;;;;;4.20;2.00;;;;;;;8.71;100.00;98066.69;4309449;81;28538;-87
2020/12/24 13:00:22;;;;;;;5.75;2.20;;;;;;;8.66;100.00;98071.44;4330241;80;28610;-83
2020/12/24 13:06:25;;;;;;;5.62;2.30;;;;;;;8.55;100.00;98070.44;4331962;81;28587;-86
2020/12/24 13:12:27;;;;;;;6.72;2.65;;;;;;;8.45;100.00;98068.89;4342454;81;28609;-85
2020/12/24 13:18:29;;;;;;;7.10;2.87;;;;;;;8.44;100.00;98076.64;4200147;84;28607;-88
2020/12/24 13:24:31;;;;;;;6.10;2.77;;;;;;;8.28;100.00;98060.83;4237922;82;28547;-89
2020/12/24 13:30:34;;;;;;;6.03;2.80;;;;;;;8.26;100.00;98057.04;4259415;83;28556;-91
2020/12/24 13:36:36;;;;;;;6.95;3.08;;;;;;;8.17;100.00;98049.92;4257386;83;28604;-89
2020/12/24 13:42:38;;;;;;;5.22;2.52;;;;;;;8.19;100.00;98022.92;4241687;83;28573;-88
2020/12/24 13:48:40;;;;;;;5.78;3.10;;;;;;;8.08;100.00;98001.83;4264906;83;28573;-88
2020/12/24 13:54:42;;;;;;;6.97;2.83;;;;;;;8.04;100.00;97994.01;4242071;83;28587;-89
2020/12/24 14:00:45;;;;;;;5.30;2.27;;;;;;;8.03;100.00;98023.97;4212327;83;28574;-91
2020/12/24 14:06:49;;;;;;;3.85;2.20;;;;;;;7.96;100.00;98015.26;4204775;82;28632;-87
2020/12/24 14:12:51;;;;;;;5.92;2.62;;;;;;;7.95;100.00;98018.98;4194430;84;28636;-85
2020/12/24 14:18:53;;;;;;;7.85;3.40;;;;;;;7.92;100.00;98031.52;4178468;84;28666;-84
2020/12/24 14:24:55;;;;;;;7.15;3.20;;;;;;;7.84;100.00;98015.33;4190420;84;28631;-83
2020/12/24 14:30:59;;;;;;;9.78;3.87;;;;;;;7.78;100.00;98002.38;4183771;84;28618;-82
2020/12/24 14:37:01;;;;;;;8.15;4.00;;;;;;;7.77;100.00;97998.59;4193950;84;28593;-89
2020/12/24 14:43:04;;;;;;;9.68;4.03;;;;;;;7.74;100.00;98013.78;4180531;84;28577;-85
2020/12/24 14:49:06;;;;;;;9.20;4.83;;;;;;;7.67;100.00;97985.84;4180726;84;28562;-87
2020/12/24 14:55:09;;;;;;;11.78;5.05;;;;;;;7.65;100.00;98000.78;4205887;84;28612;-82
2020/12/24 15:01:17;;;;;;;13.68;5.95;;;;;;;7.65;100.00;98013.33;4195795;84;28585;-83
2020/12/24 15:07:19;;;;;;;10.43;5.17;;;;;;;7.61;100.00;97998.81;4200380;84;28610;-85
2020/12/24 15:13:21;;;;;;;10.78;5.22;;;;;;;7.56;100.00;97994.72;4163874;83;28648;-85
2020/12/24 15:19:23;;;;;;;11.05;4.90;;;;;;;7.51;100.00;97984.19;4209085;84;28615;-86
2020/12/24 15:25:27;;;;;;;9.88;5.55;;;;;;;7.52;100.00;97999.18;4181382;83;28559;-86
2020/12/24 15:31:34;;;;;;;8.13;4.00;;;;;;;7.52;100.00;98009.08;4186719;84;28591;-90
2020/12/24 15:37:36;;;;;;;9.20;3.65;;;;;;;7.52;100.00;98022.45;4197480;82;28601;-85
2020/12/24 15:43:39;;;;;;;9.28;4.37;;;;;;;7.51;100.00;98013.61;4208523;82;28581;-85
2020/12/24 15:49:40;;;;;;;8.00;3.22;;;;;;;7.49;100.00;97986.29;4221888;84;28600;-85
2020/12/24 15:55:43;;;;;;;6.97;2.72;;;;;;;7.45;100.00;97974.45;4192554;84;29044;-85
2020/12/24 16:01:50;;;;;;;6.22;3.25;;;;;;;7.43;100.00;97963.16;4196835;84;28611;-86
2020/12/24 16:07:53;;;;;;;7.85;2.92;;;;;;;7.36;100.00;97985.23;4187931;84;28628;-83
2020/12/24 16:13:55;;;;;;;6.37;2.60;;;;;;;7.30;100.00;97960.75;4182206;84;28592;-84
2020/12/24 16:19:57;;;;;;;5.40;2.25;;;;;;;7.35;100.00;97940.28;4180596;84;28624;-89
2020/12/24 16:26:00;;;;;;;5.70;2.15;;;;;;;7.23;100.00;97970.25;4213630;84;28591;-89
2020/12/24 16:32:04;;;;;;;6.35;2.62;;;;;;;7.08;100.00;97977.42;4187507;84;28577;-85
2020/12/24 16:38:06;;;;;;;5.97;2.37;;;;;;;7.01;100.00;97989.58;4189102;84;28557;-88
2020/12/24 16:44:08;;;;;;;6.47;1.90;;;;;;;6.89;100.00;97988.23;4201588;84;28579;-83
2020/12/24 16:50:12;;;;;;;6.75;2.58;;;;;;;6.86;100.00;97980.69;4187330;84;28609;-84
2020/12/24 16:56:15;;;;;;;6.35;2.12;;;;;;;6.87;100.00;97987.66;4223467;84;28557;-84
2020/12/24 17:02:19;;;;;;;9.15;2.70;;;;;;;6.57;100.00;97994.45;4167264;84;28553;-84
2020/12/24 17:08:21;;;;;;;7.15;2.50;;;;;;;6.39;100.00;97994.28;4230231;84;28624;-96
2020/12/24 17:14:28;;;;;;;6.25;2.30;;;;;;;6.29;100.00;97979.34;4182147;82;28546;-90
2020/12/24 17:20:30;;;;;;;7.05;3.00;;;;;;;6.17;100.00;97971.33;4352978;81;28570;-89
2020/12/24 17:26:32;;;;;;;7.03;3.08;;;;;;;6.01;100.00;97954.09;4325135;80;28548;-90
2020/12/24 17:32:34;;;;;;;8.70;3.33;;;;;;;5.85;100.00;97967.02;4341683;80;28557;-91
2020/12/24 17:38:37;;;;;;;7.47;3.25;;;;;;;5.75;100.00;97962.75;4199325;84;28604;-90
2020/12/24 17:44:39;;;;;;;9.25;3.67;;;;;;;5.75;100.00;97973.42;4181744;84;28628;-90
2020/12/24 17:50:41;;;;;;;9.53;3.52;;;;;;;5.84;100.00;97976.06;4182790;84;28586;-91
2020/12/24 17:56:44;;;;;;;11.68;3.83;;;;;;;5.84;100.00;97977.94;4220413;83;28582;-88
2020/12/24 18:02:46;;;;;;;8.88;3.42;;;;;;;5.59;100.00;97973.53;4200149;84;28634;-92
2020/12/24 18:08:49;;;;;;;9.75;3.75;;;;;;;5.35;100.00;97984.58;4195548;84;28569;-94
2020/12/24 18:14:51;;;;;;;10.55;3.62;;;;;;;5.23;100.00;97991.98;4264912;82;28661;-93
2020/12/24 18:20:54;;;;;;;12.60;5.03;;;;;;;5.27;100.00;97989.70;4264569;81;28559;-94
2020/12/24 18:26:56;;;;;;;11.63;5.15;;;;;;;5.32;100.00;97983.70;4298464;82;28628;-91
2020/12/24 18:32:58;;;;;;;13.03;5.40;;;;;;;5.27;100.00;97969.20;4230987;83;28668;-85
2020/12/24 18:39:01;;;;;;;11.83;5.00;;;;;;;5.12;100.00;97969.58;4353360;81;28577;-84
2020/12/24 18:45:03;;;;;;;15.35;5.28;;;;;;;5.11;100.00;97973.28;4332692;81;28544;-88
2020/12/24 18:51:06;;;;;;;11.10;5.28;;;;;;;5.18;100.00;97970.54;4346505;80;28677;-86
2020/12/24 18:57:09;;;;;;;10.70;5.37;;;;;;;5.28;100.00;97962.01;4335659;80;28583;-84
2020/12/24 19:03:11;;;;;;;10.13;5.30;;;;;;;5.30;100.00;97968.75;4200248;83;28586;-84
2020/12/24 19:09:13;;;;;;;9.80;4.37;;;;;;;5.17;100.00;97958.25;4334591;81;28601;-83
2020/12/24 19:15:15;;;;;;;9.43;4.17;;;;;;;5.05;100.00;97968.00;4345420;81;28590;-84
2020/12/24 19:21:21;;;;;;;11.50;4.50;;;;;;;4.95;100.00;97961.86;4328003;81;28548;-85
2020/12/24 19:27:24;;;;;;;10.43;4.35;;;;;;;4.91;100.00;97961.48;4329714;81;28596;-86
2020/12/24 19:33:26;;;;;;;8.50;4.00;;;;;;;5.01;100.00;97971.11;4315624;81;28538;-85
2020/12/24 19:39:28;;;;;;;9.63;4.28;;;;;;;5.08;100.00;97968.38;4345315;81;28545;-88
2020/12/24 19:45:30;;;;;;;8.75;4.03;;;;;;;5.10;100.00;97968.99;4330627;81;28625;-85
2020/12/24 19:51:32;;;;;;;7.85;3.50;;;;;;;5.13;100.00;97975.20;4328604;81;28594;-85
2020/12/24 19:57:34;;;;;;;8.63;3.80;;;;;;;5.26;100.00;97982.23;4331845;81;28589;-80
2020/12/24 20:03:39;;;;;;;7.03;3.47;;;;;;;5.38;100.00;97977.49;4342542;81;28569;-81
2020/12/24 20:09:41;;;;;;;8.45;4.10;;;;;;;5.50;100.00;97989.03;4314562;80;28571;-83
2020/12/24 20:15:45;;;;;;;8.20;3.67;;;;;;;5.55;100.00;97989.69;4317898;80;28604;-84
2020/12/24 20:21:57;;;;;;;6.80;3.05;;;;;;;5.54;100.00;97984.86;4334467;81;28591;-82
2020/12/24 20:28:00;;;;;;;6.58;3.08;;;;;;;5.60;100.00;97993.02;4322894;80;28556;-81
2020/12/24 20:34:02;;;;;;;8.10;3.40;;;;;;;5.58;100.00;97984.73;4323128;80;28565;-84
2020/12/24 20:40:05;;;;;;;8.80;3.72;;;;;;;5.54;100.00;97980.86;4332659;81;28586;-81
2020/12/24 20:46:07;;;;;;;7.67;3.20;;;;;;;5.40;100.00;97979.41;4336126;81;28605;-81
2020/12/24 20:52:09;;;;;;;8.95;3.55;;;;;;;5.32;100.00;97977.87;4352099;81;28601;-81
2020/12/24 20:58:11;;;;;;;8.98;3.72;;;;;;;5.32;100.00;97991.70;4336883;80;28593;-87
2020/12/24 21:04:14;;;;;;;10.80;4.40;;;;;;;5.41;100.00;98000.50;4317771;81;28567;-87
2020/12/24 21:10:16;;;;;;;12.07;4.90;;;;;;;5.48;100.00;97991.11;4314826;81;28559;-91
2020/12/24 21:16:20;;;;;;;9.23;4.00;;;;;;;5.43;100.00;97994.44;4341855;81;28579;-91
2020/12/24 21:22:22;;;;;;;6.33;3.40;;;;;;;5.38;100.00;97994.81;4332152;80;28586;-85
2020/12/24 21:28:25;;;;;;;8.95;3.70;;;;;;;5.52;100.00;97996.28;4343267;80;28556;-82
2020/12/24 21:34:28;;;;;;;6.72;3.10;;;;;;;5.67;100.00;97996.39;4334883;80;28538;-85
2020/12/24 21:40:30;;;;;;;7.22;3.08;;;;;;;5.69;100.00;98000.47;4331090;81;28576;-84
2020/12/24 21:46:32;;;;;;;8.70;3.47;;;;;;;5.75;100.00;97999.30;4322156;80;28568;-84
2020/12/24 21:52:35;;;;;;;7.33;3.35;;;;;;;5.80;100.00;97988.24;4346177;81;28575;-84
2020/12/24 21:58:42;;;;;;;6.83;3.33;;;;;;;5.82;100.00;97988.83;4301082;81;28548;-84
2020/12/24 22:04:48;;;;;;;6.67;2.95;;;;;;;5.81;100.00;97991.70;4288475;80;28536;-85
2020/12/24 22:10:51;;;;;;;8.83;3.62;;;;;;;5.63;100.00;97993.89;4350941;80;28557;-85
2020/12/24 22:16:53;;;;;;;8.15;3.27;;;;;;;5.66;100.00;97999.59;4332696;81;28556;-83
2020/12/24 22:22:56;;;;;;;6.75;2.95;;;;;;;5.74;100.00;97990.47;4168514;84;28584;-84
2020/12/24 22:28:58;;;;;;;7.37;2.37;;;;;;;5.66;100.00;97994.77;4187470;84;28628;-84
2020/12/24 22:35:01;;;;;;;3.98;1.90;;;;;;;5.63;100.00;97980.06;4339923;80;28583;-82
2020/12/24 22:41:03;;;;;;;6.12;2.27;;;;;;;5.76;100.00;97982.25;4183601;84;28577;-84
2020/12/24 22:47:05;;;;;;;6.42;2.25;;;;;;;5.92;100.00;97980.27;4203012;84;28547;-84
2020/12/24 22:53:07;;;;;;;4.80;2.17;;;;;;;6.06;100.00;97984.92;4179194;84;28573;-82
2020/12/24 22:59:09;;;;;;;4.10;2.20;;;;;;;6.17;100.00;97978.52;4170961;84;28607;-82
2020/12/24 23:05:11;;;;;;;4.65;1.82;;;;;;;6.25;100.00;97994.20;4179938;84;28569;-82
2020/12/24 23:11:13;;;;;;;3.40;1.45;;;;;;;6.28;100.00;97993.74;4326339;81;28555;-83
2020/12/24 23:17:15;;;;;;;2.70;1.10;;;;;;;5.86;100.00;98066.02;4195736;84;28625;-84
2020/12/24 23:23:18;;;;;;;1.42;0.60;;;;;;;5.28;100.00;98068.11;4183811;84;28728;-81
2020/12/24 23:29:20;;;;;;;2.05;1.00;;;;;;;4.81;100.00;98075.70;4213417;84;28574;-81
2020/12/24 23:35:23;;;;;;;2.33;1.17;;;;;;;4.66;100.00;98082.17;4256023;84;28562;-82
2020/12/24 23:41:25;;;;;;;1.80;1.25;;;;;;;4.58;100.00;98097.06;4296008;83;28597;-83
2020/12/24 23:47:27;;;;;;;2.92;1.90;;;;;;;4.46;100.00;98116.39;4295100;83;28602;-80
2020/12/24 23:53:29;;;;;;;3.58;2.52;;;;;;;4.32;100.00;98127.63;4296452;83;28590;-82
2020/12/24 23:59:31;;;;;;;3.80;2.42;;;;;;;4.15;100.00;98141.10;4276842;82;28603;-80
